createdAt,value
2022-09-07T00:00:35.033Z,9.309072
2022-09-07T00:01:33.459Z,9.309086
2022-09-07T00:02:33.389Z,9.308971
2022-09-07T00:03:33.413Z,9.308953
2022-09-07T00:04:33.375Z,9.308992
2022-09-07T00:05:33.345Z,9.309027
2022-09-07T00:06:33.382Z,9.308995
2022-09-07T00:07:33.333Z,9.309046
2022-09-07T00:08:33.294Z,9.308995
2022-09-07T00:09:34.432Z,9.308864
2022-09-07T00:10:33.300Z,9.308982
2022-09-07T00:11:33.381Z,9.308970
2022-09-07T00:12:33.458Z,9.308947
2022-09-07T00:13:33.381Z,9.309031
2022-09-07T00:14:33.413Z,9.308992
2022-09-07T00:15:33.347Z,9.308979
2022-09-07T00:16:33.420Z,9.308963
2022-09-07T00:17:33.393Z,9.308948
2022-09-07T00:18:33.399Z,9.308880
2022-09-07T00:19:33.346Z,9.308955
2022-09-07T00:20:33.313Z,9.308996
2022-09-07T00:21:33.301Z,9.309030
2022-09-07T00:22:34.350Z,9.309013
2022-09-07T00:23:33.325Z,9.308941
2022-09-07T00:24:33.335Z,9.308946
2022-09-07T00:25:33.307Z,9.308943
2022-09-07T00:26:33.403Z,9.308946
2022-09-07T00:27:33.279Z,9.309067
2022-09-07T00:28:33.326Z,9.309140
2022-09-07T00:29:33.195Z,9.309198
2022-09-07T00:30:33.181Z,9.309176
2022-09-07T00:31:33.303Z,9.309139
2022-09-07T00:32:33.162Z,9.309129
2022-09-07T00:33:33.232Z,9.309142
2022-09-07T00:34:33.153Z,9.309150
2022-09-07T00:35:33.129Z,9.309135
2022-09-07T00:36:33.096Z,9.309130
2022-09-07T00:37:33.107Z,9.309136
2022-09-07T00:38:33.118Z,9.309128
2022-09-07T00:39:33.266Z,9.309155
2022-09-07T00:40:33.220Z,9.309205
2022-09-07T00:41:33.191Z,9.309205
2022-09-07T00:42:33.181Z,9.309208
2022-09-07T00:43:33.212Z,9.309176
2022-09-07T00:44:33.190Z,9.309170
2022-09-07T00:45:33.167Z,9.309135
2022-09-07T00:46:33.209Z,9.309053
2022-09-07T00:47:33.182Z,9.309062
2022-09-07T00:48:33.128Z,9.309030
2022-09-07T00:49:33.182Z,9.309020
2022-09-07T00:50:33.150Z,9.309072
2022-09-07T00:51:33.106Z,9.309138
2022-09-07T00:52:33.094Z,9.309109
2022-09-07T00:53:33.073Z,9.309096
2022-09-07T00:54:33.063Z,9.309117
2022-09-07T00:55:33.214Z,9.309120
2022-09-07T00:56:33.037Z,9.309097
2022-09-07T00:57:33.050Z,9.309127
2022-09-07T00:58:33.082Z,9.309142
2022-09-07T00:59:32.922Z,9.309100
2022-09-07T01:00:32.937Z,9.309097
2022-09-07T01:01:34.089Z,9.309019
2022-09-07T01:02:33.037Z,9.308986
2022-09-07T01:03:32.922Z,9.309031
2022-09-07T01:04:32.940Z,9.309042
2022-09-07T01:05:32.881Z,9.309060
2022-09-07T01:06:32.976Z,9.309061
2022-09-07T01:07:32.887Z,9.309098
2022-09-07T01:08:33.016Z,9.309138
2022-09-07T01:09:32.981Z,9.309101
2022-09-07T01:10:33.011Z,9.309081
2022-09-07T01:11:32.941Z,9.309134
2022-09-07T01:12:33.000Z,9.309113
2022-09-07T01:13:32.930Z,9.309062
2022-09-07T01:14:33.996Z,9.308996
2022-09-07T01:15:32.962Z,9.309005
2022-09-07T01:16:32.915Z,9.309052
2022-09-07T01:17:32.953Z,9.309039
2022-09-07T01:18:32.899Z,9.308984
2022-09-07T01:19:32.873Z,9.308930
2022-09-07T01:20:32.927Z,9.308999
2022-09-07T01:21:32.863Z,9.308968
2022-09-07T01:22:32.905Z,9.309129
2022-09-07T01:23:32.927Z,9.309071
2022-09-07T01:24:32.866Z,9.308825
2022-09-07T01:25:32.826Z,9.308886
2022-09-07T01:26:32.821Z,9.308945
2022-09-07T01:27:32.892Z,9.308939
2022-09-07T01:28:32.890Z,9.308992
2022-09-07T01:29:32.787Z,9.308964
2022-09-07T01:30:32.724Z,9.308991
2022-09-07T01:31:32.778Z,9.309050
2022-09-07T01:32:32.723Z,9.309070
2022-09-07T01:33:32.693Z,9.309001
2022-09-07T01:34:33.775Z,9.308989
2022-09-07T01:35:32.679Z,9.309045
2022-09-07T01:36:32.654Z,9.308999
2022-09-07T01:37:32.706Z,9.309076
2022-09-07T01:38:32.672Z,9.309005
2022-09-07T01:39:32.878Z,9.309091
2022-09-07T01:40:32.811Z,9.309064
2022-09-07T01:41:32.745Z,9.309049
2022-09-07T01:42:32.747Z,9.309031
2022-09-07T01:43:32.751Z,9.309023
2022-09-07T01:44:32.751Z,9.309067
2022-09-07T01:45:32.753Z,9.309130
2022-09-07T01:46:32.797Z,9.309068
2022-09-07T01:47:32.690Z,9.309127
2022-09-07T01:48:32.692Z,9.309058
2022-09-07T01:49:32.678Z,9.308993
2022-09-07T01:50:32.741Z,9.308995
2022-09-07T01:51:32.662Z,9.309032
2022-09-07T01:52:32.721Z,9.309012
2022-09-07T01:53:32.633Z,9.309064
2022-09-07T01:54:32.724Z,9.309009
2022-09-07T01:55:32.638Z,9.308998
2022-09-07T01:56:33.002Z,9.309026
2022-09-07T01:57:32.529Z,9.309046
2022-09-07T01:58:32.616Z,9.309109
2022-09-07T01:59:32.639Z,9.309072
2022-09-07T02:00:32.510Z,9.309110
2022-09-07T02:01:32.622Z,9.309063
2022-09-07T02:02:32.545Z,9.309097
2022-09-07T02:03:32.464Z,9.309138
2022-09-07T02:04:32.551Z,9.309151
2022-09-07T02:05:32.559Z,9.309093
2022-09-07T02:06:32.559Z,9.309121
2022-09-07T02:07:32.605Z,9.309101
2022-09-07T02:08:32.543Z,9.309045
2022-09-07T02:09:32.507Z,9.309045
2022-09-07T02:10:33.508Z,9.309030
2022-09-07T02:11:32.474Z,9.309051
2022-09-07T02:12:32.538Z,9.308978
2022-09-07T02:13:32.518Z,9.309066
2022-09-07T02:14:32.463Z,9.309042
2022-09-07T02:15:32.551Z,9.309031
2022-09-07T02:16:32.475Z,9.309056
2022-09-07T02:17:32.610Z,9.309028
2022-09-07T02:18:32.463Z,9.309058
2022-09-07T02:19:32.463Z,9.309168
2022-09-07T02:20:32.430Z,9.309115
2022-09-07T02:21:32.403Z,9.309013
2022-09-07T02:22:32.370Z,9.309135
2022-09-07T02:23:32.373Z,9.309022
2022-09-07T02:24:32.341Z,9.308977
2022-09-07T02:25:32.457Z,9.309107
2022-09-07T02:26:32.409Z,9.309053
2022-09-07T02:27:32.410Z,9.309048
2022-09-07T02:28:32.729Z,9.309053
2022-09-07T02:29:32.355Z,9.309047
2022-09-07T02:30:32.393Z,9.309020
2022-09-07T02:31:32.405Z,9.309108
2022-09-07T02:32:32.374Z,9.309036
2022-09-07T02:33:32.389Z,9.308950
2022-09-07T02:34:32.428Z,9.309009
2022-09-07T02:35:32.356Z,9.309004
2022-09-07T02:36:32.410Z,9.309062
2022-09-07T02:37:32.380Z,9.309085
2022-09-07T02:38:32.480Z,9.308964
2022-09-07T02:39:32.415Z,9.309039
2022-09-07T02:40:32.325Z,9.309141
2022-09-07T02:41:32.313Z,9.309148
2022-09-07T02:42:32.288Z,9.309009
2022-09-07T02:43:32.326Z,9.309000
2022-09-07T02:44:32.297Z,9.308965
2022-09-07T02:45:32.230Z,9.308949
2022-09-07T02:46:32.282Z,9.309043
2022-09-07T02:47:32.147Z,9.309081
2022-09-07T02:48:32.282Z,9.309068
2022-09-07T02:49:32.132Z,9.309033
2022-09-07T02:50:32.159Z,9.309079
2022-09-07T02:51:32.150Z,9.309106
2022-09-07T02:52:32.127Z,9.309020
2022-09-07T02:53:32.156Z,9.309082
2022-09-07T02:54:32.218Z,9.309092
2022-09-07T02:55:32.243Z,9.309051
2022-09-07T02:56:32.219Z,9.309044
2022-09-07T02:57:32.204Z,9.309018
2022-09-07T02:58:32.215Z,9.309143
2022-09-07T02:59:32.215Z,9.309100
2022-09-07T03:00:32.192Z,9.309159
2022-09-07T03:01:32.724Z,9.309045
2022-09-07T03:02:32.211Z,9.308986
2022-09-07T03:03:32.136Z,9.309011
2022-09-07T03:04:32.131Z,9.309039
2022-09-07T03:05:32.137Z,9.308969
2022-09-07T03:06:32.147Z,9.309080
2022-09-07T03:07:34.602Z,9.309034
2022-09-07T03:08:33.121Z,9.309017
2022-09-07T03:09:32.120Z,9.309040
2022-09-07T03:10:32.090Z,9.309084
2022-09-07T03:11:32.083Z,9.309139
2022-09-07T03:12:32.144Z,9.309158
2022-09-07T03:13:32.061Z,9.309185
2022-09-07T03:14:32.114Z,9.309130
2022-09-07T03:15:32.053Z,9.309142
2022-09-07T03:16:31.976Z,9.309085
2022-09-07T03:17:32.094Z,9.309083
2022-09-07T03:18:32.158Z,9.309075
2022-09-07T03:19:31.940Z,9.309037
2022-09-07T03:20:31.935Z,9.309058
2022-09-07T03:21:31.930Z,9.309096
2022-09-07T03:22:31.962Z,9.309136
2022-09-07T03:23:32.056Z,9.309094
2022-09-07T03:24:32.030Z,9.309113
2022-09-07T03:25:32.016Z,9.309099
2022-09-07T03:26:31.962Z,9.309068
2022-09-07T03:27:31.927Z,9.309077
2022-09-07T03:28:32.113Z,9.309087
2022-09-07T03:29:31.971Z,9.309077
2022-09-07T03:30:32.018Z,9.309093
2022-09-07T03:31:31.924Z,9.309103
2022-09-07T03:32:31.888Z,9.309084
2022-09-07T03:33:31.920Z,9.309029
2022-09-07T03:34:31.949Z,9.309128
2022-09-07T03:35:31.922Z,9.309134
2022-09-07T03:36:31.931Z,9.309089
2022-09-07T03:37:31.920Z,9.309114
2022-09-07T03:38:31.999Z,9.309116
2022-09-07T03:39:32.007Z,9.309123
2022-09-07T03:40:31.918Z,9.309090
2022-09-07T03:41:31.917Z,9.309089
2022-09-07T03:42:31.899Z,9.309075
2022-09-07T03:43:31.770Z,9.309072
2022-09-07T03:44:31.727Z,9.309077
2022-09-07T03:45:31.800Z,9.309098
2022-09-07T03:46:31.790Z,9.309073
2022-09-07T03:47:31.774Z,9.309225
2022-09-07T03:48:31.948Z,9.309113
2022-09-07T03:49:31.711Z,9.309189
2022-09-07T03:50:31.731Z,9.309189
2022-09-07T03:51:31.668Z,9.309212
2022-09-07T03:52:31.705Z,9.309174
2022-09-07T03:53:31.704Z,9.309093
2022-09-07T03:54:31.788Z,9.309130
2022-09-07T03:55:31.785Z,9.309156
2022-09-07T03:56:31.821Z,9.309171
2022-09-07T03:57:31.757Z,9.309208
2022-09-07T03:58:31.870Z,9.309176
2022-09-07T03:59:31.740Z,9.309074
2022-09-07T04:00:31.738Z,9.309090
2022-09-07T04:01:31.875Z,9.309156
2022-09-07T04:02:31.822Z,9.309186
2022-09-07T04:03:31.683Z,9.309190
2022-09-07T04:04:31.740Z,9.309204
2022-09-07T04:05:31.675Z,9.309158
2022-09-07T04:06:32.027Z,9.309119
2022-09-07T04:07:31.673Z,9.309186
2022-09-07T04:08:31.755Z,9.309197
2022-09-07T04:09:31.659Z,9.309174
2022-09-07T04:10:31.627Z,9.309134
2022-09-07T04:11:31.650Z,9.309143
2022-09-07T04:12:31.666Z,9.309134
2022-09-07T04:13:31.683Z,9.309183
2022-09-07T04:14:32.622Z,9.309201
2022-09-07T04:15:31.552Z,9.309154
2022-09-07T04:16:31.591Z,9.309188
2022-09-07T04:17:31.538Z,9.309050
2022-09-07T04:18:31.745Z,9.309061
2022-09-07T04:19:31.543Z,9.309143
2022-09-07T04:20:31.475Z,9.309128
2022-09-07T04:21:31.589Z,9.309122
2022-09-07T04:22:31.611Z,9.309053
2022-09-07T04:23:31.571Z,9.309110
2022-09-07T04:24:31.574Z,9.309114
2022-09-07T04:25:31.573Z,9.309096
2022-09-07T04:26:31.530Z,9.309115
2022-09-07T04:27:31.579Z,9.309168
2022-09-07T04:28:31.683Z,9.309150
2022-09-07T04:29:31.623Z,9.309088
2022-09-07T04:30:31.578Z,9.309112
2022-09-07T04:31:31.526Z,9.309089
2022-09-07T04:32:31.659Z,9.309114
2022-09-07T04:33:31.612Z,9.309089
2022-09-07T04:34:31.442Z,9.309176
2022-09-07T04:35:31.434Z,9.309180
2022-09-07T04:36:31.424Z,9.309173
2022-09-07T04:37:32.421Z,9.309127
2022-09-07T04:38:31.539Z,9.309095
2022-09-07T04:39:31.466Z,9.309089
2022-09-07T04:40:31.493Z,9.309047
2022-09-07T04:41:31.443Z,9.309048
2022-09-07T04:42:31.459Z,9.309035
2022-09-07T04:43:31.636Z,9.309059
2022-09-07T04:44:31.480Z,9.309099
2022-09-07T04:45:31.491Z,9.309169
2022-09-07T04:46:31.451Z,9.309181
2022-09-07T04:47:31.419Z,9.309136
2022-09-07T04:48:31.594Z,9.309101
2022-09-07T04:49:31.435Z,9.309102
2022-09-07T04:50:31.502Z,9.309068
2022-09-07T04:51:31.411Z,9.309061
2022-09-07T04:52:31.437Z,9.309089
2022-09-07T04:53:31.394Z,9.309114
2022-09-07T04:54:31.397Z,9.309052
2022-09-07T04:55:31.417Z,9.309079
2022-09-07T04:56:31.408Z,9.309055
2022-09-07T04:57:31.604Z,9.309004
2022-09-07T04:58:31.356Z,9.309036
2022-09-07T04:59:31.231Z,9.309027
2022-09-07T05:00:31.253Z,9.308994
2022-09-07T05:01:31.364Z,9.309032
2022-09-07T05:02:31.260Z,9.309078
2022-09-07T05:03:31.218Z,9.309069
2022-09-07T05:04:31.253Z,9.309052
2022-09-07T05:05:31.206Z,9.308984
2022-09-07T05:06:31.265Z,9.308979
2022-09-07T05:07:31.285Z,9.309030
2022-09-07T05:08:31.379Z,9.308956
2022-09-07T05:09:31.328Z,9.309064
2022-09-07T05:10:31.219Z,9.308952
2022-09-07T05:11:31.360Z,9.308927
2022-09-07T05:12:31.248Z,9.308946
2022-09-07T05:13:31.333Z,9.308989
2022-09-07T05:14:31.259Z,9.309013
2022-09-07T05:15:31.176Z,9.309000
2022-09-07T05:16:31.279Z,9.308986
2022-09-07T05:17:31.235Z,9.309035
2022-09-07T05:18:31.371Z,9.309041
2022-09-07T05:19:31.174Z,9.309012
2022-09-07T05:20:31.230Z,9.309037
2022-09-07T05:21:31.196Z,9.308966
2022-09-07T05:22:31.197Z,9.309043
2022-09-07T05:23:31.140Z,9.309025
2022-09-07T05:24:31.171Z,9.309035
2022-09-07T05:25:31.116Z,9.309130
2022-09-07T05:26:31.190Z,9.309039
2022-09-07T05:27:31.187Z,9.309032
2022-09-07T05:28:31.431Z,9.309054
2022-09-07T05:31:33.024Z,9.308999
2022-09-07T05:32:31.076Z,9.308974
2022-09-07T05:34:33.314Z,9.308949
2022-09-07T05:35:31.040Z,9.308937
2022-09-07T05:36:31.182Z,9.308953
2022-09-07T05:37:30.960Z,9.308963
2022-09-07T05:38:31.317Z,9.309097
2022-09-07T05:39:31.143Z,9.309078
2022-09-07T05:40:31.029Z,9.308965
2022-09-07T05:41:31.073Z,9.308986
2022-09-07T05:42:31.107Z,9.309039
2022-09-07T05:43:31.001Z,9.309034
2022-09-07T05:44:46.496Z,9.309032
2022-09-07T05:45:33.036Z,9.308980
2022-09-07T05:46:30.992Z,9.309013
2022-09-07T05:47:30.995Z,9.309086
2022-09-07T05:48:31.053Z,9.309063
2022-09-07T05:49:31.078Z,9.309048
2022-09-07T05:50:30.956Z,9.309024
2022-09-07T05:51:31.040Z,9.308998
2022-09-07T05:52:30.962Z,9.308977
2022-09-07T05:53:30.972Z,9.308932
2022-09-07T05:54:30.919Z,9.308943
2022-09-07T05:55:31.088Z,9.308957
2022-09-07T05:56:31.002Z,9.308989
2022-09-07T05:57:30.985Z,9.309039
2022-09-07T05:58:30.867Z,9.308962
2022-09-07T05:59:30.850Z,9.309004
2022-09-07T06:00:30.813Z,9.309019
2022-09-07T06:01:30.798Z,9.308965
2022-09-07T06:02:30.855Z,9.308949
2022-09-07T06:03:30.853Z,9.308943
2022-09-07T06:04:30.775Z,9.308955
2022-09-07T06:05:30.761Z,9.309015
2022-09-07T06:06:30.881Z,9.309032
2022-09-07T06:07:30.879Z,9.308999
2022-09-07T06:08:30.917Z,9.309011
2022-09-07T06:09:30.908Z,9.309057
2022-09-07T06:10:46.142Z,9.309138
2022-09-07T06:11:33.183Z,9.309127
2022-09-07T06:12:30.847Z,9.309058
2022-09-07T06:13:30.907Z,9.309111
2022-09-07T06:14:30.881Z,9.309129
2022-09-07T07:33:37.523Z,9.309060
2022-09-07T07:34:37.159Z,9.309114
2022-09-07T07:35:37.073Z,9.309160
2022-09-07T07:36:36.954Z,9.309111
2022-09-07T07:37:37.042Z,9.309168
2022-09-07T07:40:39.798Z,9.309031
2022-09-07T07:41:54.412Z,9.309020
2022-09-07T07:42:38.889Z,9.309060
2022-09-07T07:43:36.940Z,9.309266
2022-09-07T07:44:36.814Z,9.309100
2022-09-07T07:46:38.797Z,9.309085
2022-09-07T07:47:37.875Z,9.309081
2022-09-07T07:48:36.789Z,9.309035
2022-09-07T07:49:36.886Z,9.308951
2022-09-07T07:50:36.952Z,9.308837
2022-09-07T07:53:41.581Z,9.308923
2022-09-07T07:54:37.858Z,9.309128
2022-09-07T07:55:44.513Z,9.308966
2022-09-07T07:56:38.948Z,9.308929
2022-09-07T07:57:36.852Z,9.309041
2022-09-07T07:58:37.873Z,9.309063
2022-09-07T07:59:36.844Z,9.309184
2022-09-07T08:00:53.032Z,9.309159
2022-09-07T08:01:38.767Z,9.309233
2022-09-07T08:02:36.805Z,9.309175
2022-09-07T08:03:36.769Z,9.309128
2022-09-07T08:04:36.807Z,9.309106
2022-09-07T08:05:36.902Z,9.309049
2022-09-07T08:06:36.757Z,9.309059
2022-09-07T08:07:36.732Z,9.308960
2022-09-07T08:08:36.637Z,9.308975
2022-09-07T08:09:36.703Z,9.309012
2022-09-07T08:10:36.752Z,9.309024
2022-09-07T08:11:36.763Z,9.309233
2022-09-07T08:12:36.678Z,9.309190
2022-09-07T08:13:36.719Z,9.309193
2022-09-07T08:14:36.663Z,9.309218
2022-09-07T08:15:36.768Z,9.309134
2022-09-07T08:16:36.728Z,9.309182
2022-09-07T08:17:36.661Z,9.309131
2022-09-07T08:18:36.683Z,9.309253
2022-09-07T08:19:36.626Z,9.309214
2022-09-07T08:20:36.706Z,9.309183
2022-09-07T08:21:36.655Z,9.309171
2022-09-07T08:22:36.607Z,9.309195
2022-09-07T08:23:36.667Z,9.309151
2022-09-07T08:24:36.677Z,9.309179
2022-09-07T08:25:36.655Z,9.309114
2022-09-07T08:26:36.703Z,9.309093
2022-09-07T08:27:36.546Z,9.309122
2022-09-07T08:28:36.626Z,9.309157
2022-09-07T08:29:36.585Z,9.309128
2022-09-07T08:30:36.551Z,9.309093
2022-09-07T08:31:36.673Z,9.309091
2022-09-07T08:32:36.615Z,9.309096
2022-09-07T08:33:36.477Z,9.309117
2022-09-07T08:34:36.431Z,9.309123
2022-09-07T08:35:36.472Z,9.309145
2022-09-07T08:36:36.474Z,9.309147
2022-09-07T08:37:36.638Z,9.309150
2022-09-07T08:38:36.458Z,9.309120
2022-09-07T08:39:36.487Z,9.309126
2022-09-07T08:40:36.409Z,9.309139
2022-09-07T08:41:36.387Z,9.309133
2022-09-07T08:42:37.409Z,9.309137
2022-09-07T08:43:36.437Z,9.309124
2022-09-07T08:44:36.487Z,9.309109
2022-09-07T08:45:36.536Z,9.309106
2022-09-07T08:46:36.537Z,9.309061
2022-09-07T08:47:36.517Z,9.309117
2022-09-07T08:48:36.430Z,9.309105
2022-09-07T08:49:36.449Z,9.309086
2022-09-07T08:50:36.454Z,9.309015
2022-09-07T08:51:36.426Z,9.309067
2022-09-07T08:52:36.377Z,9.309106
2022-09-07T08:53:36.473Z,9.309065
2022-09-07T08:54:36.462Z,9.309011
2022-09-07T08:55:36.452Z,9.309034
2022-09-07T08:56:36.435Z,9.309031
2022-09-07T08:57:36.285Z,9.309097
2022-09-07T08:58:51.140Z,9.309039
2022-09-07T08:59:38.308Z,9.309044
2022-09-07T09:00:36.401Z,9.309054
2022-09-07T09:01:37.095Z,9.309032
2022-09-07T09:02:43.606Z,9.309068
2022-09-07T09:04:15.370Z,9.309018
2022-09-07T09:05:16.121Z,9.309066
2022-09-07T09:05:38.324Z,9.309041
2022-09-07T09:06:36.392Z,9.309046
2022-09-07T09:07:36.326Z,9.309049
2022-09-07T09:08:36.430Z,9.309149
2022-09-07T09:09:36.481Z,9.309078
2022-09-07T09:10:36.347Z,9.308977
2022-09-07T09:11:36.279Z,9.309028
2022-09-07T09:12:37.831Z,9.309122
2022-09-07T09:13:37.246Z,9.309208
2022-09-07T09:14:37.335Z,9.309103
2022-09-07T09:15:36.293Z,9.309085
2022-09-07T09:16:36.286Z,9.309088
2022-09-07T09:17:36.248Z,9.309011
2022-09-07T09:18:36.276Z,9.309003
2022-09-07T09:19:36.254Z,9.308976
2022-09-07T09:20:36.282Z,9.309034
2022-09-07T09:21:36.275Z,9.309032
2022-09-07T09:22:36.269Z,9.309066
2022-09-07T09:23:36.206Z,9.308981
2022-09-07T09:24:36.329Z,9.309110
2022-09-07T09:25:36.216Z,9.309042
2022-09-07T09:26:36.216Z,9.308985
2022-09-07T09:27:36.149Z,9.309013
2022-09-07T09:28:36.366Z,9.309066
2022-09-07T09:29:36.140Z,9.308995
2022-09-07T09:30:36.107Z,9.309028
2022-09-07T09:31:36.174Z,9.309056
2022-09-07T09:32:36.593Z,9.309036
2022-09-07T09:33:36.052Z,9.309040
2022-09-07T09:34:36.146Z,9.309089
2022-09-07T09:35:36.062Z,9.309027
2022-09-07T09:36:35.983Z,9.309002
2022-09-07T09:37:36.160Z,9.309062
2022-09-07T09:38:36.125Z,9.308938
2022-09-07T09:39:36.174Z,9.309118
2022-09-07T09:40:36.514Z,9.309133
2022-09-07T09:41:36.167Z,9.309041
2022-09-07T09:42:36.135Z,9.309031
2022-09-07T09:43:36.163Z,9.309008
2022-09-07T09:44:36.111Z,9.308975
2022-09-07T09:46:38.127Z,9.309066
2022-09-07T09:47:36.234Z,9.309096
2022-09-07T09:48:36.077Z,9.309064
2022-09-07T09:49:36.025Z,9.309002
2022-09-07T09:52:47.795Z,9.308981
2022-09-07T09:53:38.019Z,9.309056
2022-09-07T09:54:35.977Z,9.309004
2022-09-07T09:55:36.482Z,9.309000
2022-09-07T09:56:36.881Z,9.309031
2022-09-07T09:57:36.176Z,9.309055
2022-09-07T10:01:21.054Z,9.309064
2022-09-07T10:03:10.549Z,9.309000
2022-09-07T10:04:37.842Z,9.309103
2022-09-07T10:05:35.833Z,9.309103
2022-09-07T10:06:36.043Z,9.309112
2022-09-07T10:07:35.913Z,9.309108
2022-09-07T10:08:36.044Z,9.309112
2022-09-07T10:09:37.975Z,9.309072
2022-09-07T10:10:36.874Z,9.309089
2022-09-07T10:12:05.787Z,9.309073
2022-09-07T10:12:37.765Z,9.309134
2022-09-07T10:13:35.913Z,9.309114
2022-09-07T10:14:35.853Z,9.309093
2022-09-07T10:15:40.599Z,9.309106
2022-09-07T10:16:37.824Z,9.309052
2022-09-07T10:17:35.884Z,9.309078
2022-09-07T10:18:36.021Z,9.309074
2022-09-07T10:19:35.844Z,9.309094
2022-09-07T10:20:35.785Z,9.309122
2022-09-07T10:21:35.826Z,9.309054
2022-09-07T10:22:35.839Z,9.309058
2022-09-07T10:23:35.783Z,9.309052
2022-09-07T10:24:35.763Z,9.309067
2022-09-07T10:25:35.894Z,9.309096
2022-09-07T10:26:35.741Z,9.309048
2022-09-07T10:27:35.658Z,9.309043
2022-09-07T10:29:37.740Z,9.309094
2022-09-07T10:30:35.751Z,9.309107
2022-09-07T10:31:35.834Z,9.309100
2022-09-07T10:32:35.767Z,9.309111
2022-09-07T10:33:35.726Z,9.309097
2022-09-07T10:34:35.761Z,9.309114
2022-09-07T10:35:35.763Z,9.309134
2022-09-07T10:36:36.117Z,9.309116
2022-09-07T10:37:35.703Z,9.309134
2022-09-07T10:38:35.751Z,9.309134
2022-09-07T10:39:35.784Z,9.309127
2022-09-07T10:40:35.740Z,9.309159
2022-09-07T10:41:35.670Z,9.309132
2022-09-07T10:42:35.640Z,9.309149
2022-09-07T10:43:35.652Z,9.309134
2022-09-07T10:44:35.683Z,9.309048
2022-09-07T10:45:35.901Z,9.309093
2022-09-07T10:47:37.583Z,9.309052
2022-09-07T10:48:35.529Z,9.309038
2022-09-07T10:49:35.547Z,9.309032
2022-09-07T10:50:35.581Z,9.308998
2022-09-07T10:51:35.493Z,9.309054
2022-09-07T10:52:35.553Z,9.309068
2022-09-07T10:53:43.122Z,9.309033
2022-09-07T10:54:37.501Z,9.309026
2022-09-07T10:55:35.496Z,9.309003
2022-09-07T10:56:35.682Z,9.308995
2022-09-07T10:57:35.582Z,9.309068
2022-09-07T10:59:05.185Z,9.309060
2022-09-07T11:00:37.431Z,9.308965
2022-09-07T11:01:35.599Z,9.308990
2022-09-07T11:02:35.615Z,9.308988
2022-09-07T11:03:35.579Z,9.308970
2022-09-07T11:04:35.495Z,9.309044
2022-09-07T11:05:38.398Z,9.309000
2022-09-07T11:06:36.543Z,9.309070
2022-09-07T11:07:35.612Z,9.308951
2022-09-07T11:09:15.760Z,9.308927
2022-09-07T11:09:37.432Z,9.309002
2022-09-07T11:10:35.361Z,9.308990
2022-09-07T11:12:04.924Z,9.308987
2022-09-07T11:12:37.397Z,9.308946
2022-09-07T11:13:50.217Z,9.308974
2022-09-07T11:14:37.433Z,9.308956
2022-09-07T11:15:35.370Z,9.308938
2022-09-07T11:16:51.385Z,9.309046
2022-09-07T11:17:37.355Z,9.308984
2022-09-07T11:18:35.353Z,9.309083
2022-09-07T11:19:36.464Z,9.309185
2022-09-07T11:20:35.409Z,9.309113
2022-09-07T11:22:37.322Z,9.309167
2022-09-07T11:23:40.328Z,9.309031
2022-09-07T11:24:37.632Z,9.309015
2022-09-07T11:25:35.505Z,9.309011
2022-09-07T11:26:35.402Z,9.309033
2022-09-07T11:27:35.461Z,9.308977
2022-09-07T11:28:35.344Z,9.308994
2022-09-07T11:29:36.248Z,9.308967
2022-09-07T11:30:35.840Z,9.308956
2022-09-07T11:31:35.457Z,9.309052
2022-09-07T11:32:35.204Z,9.309116
2022-09-07T11:33:35.280Z,9.309133
2022-09-07T11:34:35.275Z,9.309035
2022-09-07T11:35:35.199Z,9.308989
2022-09-07T11:36:35.380Z,9.309027
2022-09-07T11:37:35.288Z,9.309149
2022-09-07T11:38:35.375Z,9.309037
2022-09-07T11:39:35.462Z,9.308945
2022-09-07T11:40:35.302Z,9.308836
2022-09-07T11:41:35.311Z,9.308953
2022-09-07T11:42:43.196Z,9.309006
2022-09-07T11:43:37.223Z,9.309013
2022-09-07T11:44:35.257Z,9.308990
2022-09-07T11:45:35.317Z,9.309074
2022-09-07T11:46:35.307Z,9.309011
2022-09-07T11:47:35.282Z,9.309051
2022-09-07T11:48:35.532Z,9.309001
2022-09-07T11:49:35.097Z,9.308959
2022-09-07T11:50:35.440Z,9.308919
2022-09-07T11:51:35.080Z,9.309050
2022-09-07T11:52:35.193Z,9.309030
2022-09-07T11:53:35.095Z,9.308998
2022-09-07T11:54:35.092Z,9.309081
2022-09-07T11:55:35.156Z,9.309055
2022-09-07T11:56:36.698Z,9.309062
2022-09-07T11:57:36.160Z,9.309078
2022-09-07T11:58:35.129Z,9.309069
2022-09-07T11:59:37.006Z,9.309094
2022-09-07T12:00:36.157Z,9.309074
2022-09-07T12:01:35.235Z,9.309094
2022-09-07T12:02:57.697Z,9.309077
2022-09-07T12:03:37.159Z,9.309031
2022-09-07T12:04:35.224Z,9.309108
2022-09-07T12:05:35.124Z,9.309063
2022-09-07T12:06:35.106Z,9.309085
2022-09-07T12:07:35.119Z,9.309080
2022-09-07T12:08:35.068Z,9.309066
2022-09-07T12:09:35.103Z,9.309070
2022-09-07T12:10:35.069Z,9.309055
2022-09-07T12:11:34.978Z,9.309138
2022-09-07T12:12:34.980Z,9.309250
2022-09-07T12:13:34.971Z,9.309034
2022-09-07T12:14:34.982Z,9.309027
2022-09-07T12:15:34.950Z,9.309007
2022-09-07T12:16:35.001Z,9.309164
2022-09-07T12:17:35.007Z,9.309142
2022-09-07T12:18:35.014Z,9.309214
2022-09-07T12:19:34.974Z,9.309175
2022-09-07T12:20:35.005Z,9.309154
2022-09-07T12:21:34.993Z,9.309097
2022-09-07T12:22:34.998Z,9.309175
2022-09-07T12:23:35.017Z,9.309108
2022-09-07T12:24:35.048Z,9.309066
2022-09-07T12:25:34.991Z,9.309076
2022-09-07T12:26:35.105Z,9.309168
2022-09-07T12:27:34.920Z,9.309174
2022-09-07T12:28:35.183Z,9.309085
2022-09-07T12:29:35.902Z,9.309096
2022-09-07T12:30:34.854Z,9.309052
2022-09-07T12:31:39.635Z,9.309075
2022-09-07T12:33:36.783Z,9.309088
2022-09-07T12:34:34.751Z,9.309039
2022-09-07T12:35:34.800Z,9.309030
2022-09-07T12:36:34.762Z,9.309031
2022-09-07T12:37:34.839Z,9.309041
2022-09-07T12:38:34.852Z,9.309075
2022-09-07T12:39:34.892Z,9.309092
2022-09-07T12:40:34.891Z,9.309086
2022-09-07T12:41:34.863Z,9.309072
2022-09-07T12:42:37.263Z,9.309092
2022-09-07T12:43:34.830Z,9.309061
2022-09-07T12:44:34.775Z,9.309060
2022-09-07T12:45:34.885Z,9.309077
2022-09-07T12:46:35.318Z,9.309081
2022-09-07T12:47:34.865Z,9.309134
2022-09-07T12:48:34.784Z,9.309155
2022-09-07T12:49:34.784Z,9.309163
2022-09-07T12:50:38.263Z,9.309057
2022-09-07T12:52:36.665Z,9.309158
2022-09-07T12:53:34.893Z,9.309141
2022-09-07T12:54:34.728Z,9.309173
2022-09-07T12:56:15.645Z,9.309133
2022-09-07T12:56:35.640Z,9.309093
2022-09-07T12:57:34.784Z,9.309150
2022-09-07T12:58:34.586Z,9.309072
2022-09-07T12:59:34.594Z,9.309109
2022-09-07T13:00:34.730Z,9.309146
2022-09-07T13:01:34.750Z,9.309115
2022-09-07T13:02:34.835Z,9.309133
2022-09-07T13:03:58.661Z,9.309124
2022-09-07T13:04:36.550Z,9.309140
2022-09-07T13:05:34.612Z,9.309103
2022-09-07T13:07:04.125Z,9.309183
2022-09-07T13:07:36.539Z,9.309153
2022-09-07T13:08:34.683Z,9.309144
2022-09-07T13:09:34.628Z,9.309154
2022-09-07T13:10:35.172Z,9.309101
2022-09-07T13:11:34.616Z,9.309113
2022-09-07T13:14:08.901Z,9.309160
2022-09-07T13:14:36.472Z,9.309181
2022-09-07T13:15:34.628Z,9.309164
2022-09-07T13:17:16.038Z,9.309097
2022-09-07T13:17:36.480Z,9.309141
2022-09-07T13:18:34.566Z,9.309189
2022-09-07T13:19:34.440Z,9.309146
2022-09-07T13:20:39.682Z,9.309134
2022-09-07T13:21:36.487Z,9.309110
2022-09-07T13:22:34.582Z,9.309143
2022-09-07T13:23:34.465Z,9.309133
2022-09-07T13:24:49.837Z,9.309155